Date,TemperatureHighF,TemperatureAvgF,TemperatureLowF,DewpointHighF,DewpointAvgF,DewpointLowF,HumidityHigh,HumidityAvg,HumidityLow,PressureMaxIn,PressureMinIn,WindSpeedMaxMPH,WindSpeedAvgMPH,GustSpeedMaxMPH,PrecipitationSumIn
2013-1-1,61,50,32,36,27,15,94,48,21,29.89,29.73,15,5,32,0.01
2013-1-2,67,55,34,35,23,15,86,32,17,29.78,29.67,21,5,32,0.00
2013-1-3,69,50,32,30,24,18,88,44,14,29.82,29.71,15,4,27,0.00
2013-1-4,69,48,32,32,25,14,88,48,13,29.90,29.79,11,2,17,0.00
2013-1-5,63,42,32,39,19,-100,88,55,25,29.94,29.81,9,-93,10,0.00
2013-1-6,56,40,36,46,22,-100,97,73,62,29.84,29.67,17,-138,20,0.01
2013-1-7,66,33,33,44,-7,-100,99,47,32,29.78,29.65,4,-322,8,0.01
2013-1-8,78,48,35,50,30,-100,92,64,24,29.75,29.66,7,-63,10,0.02
2013-1-9,65,47,38,53,38,-100,97,80,53,29.75,29.65,9,-40,14,0.00
2013-1-10,58,46,39,48,28,-100,98,64,24,29.76,29.55,15,-61,21,0.00
2013-1-11,55,36,29,33,16,-100,92,61,26,29.85,29.69,9,-83,18,0.00
2013-1-12,56,35,30,32,8,-100,87,52,23,29.81,29.71,11,-146,14,0.00
2013-1-13,56,42,34,31,24,12,83,52,23,29.82,29.69,16,3,21,0.00
2013-1-14,54,42,32,21,11,6,63,31,15,30.00,29.80,15,5,28,0.00
2013-1-15,34,34,33,21,20,19,61,58,55,30.01,30.00,1,0,5,0.00
2013-1-16,73,66,49,32,28,23,50,25,18,29.90,29.80,8,4,16,0.00
2013-1-17,76,66,60,20,16,12,21,15,9,29.81,29.69,11,7,18,0.00
2013-1-18,75,65,55,20,17,14,23,16,11,29.75,29.69,11,5,21,0.00
2013-1-19,77,69,52,24,14,6,32,13,7,29.81,29.71,11,6,23,0.00
2013-1-20,77,64,51,24,5,-100,35,13,7,29.76,29.65,15,-71,16,0.00
2013-1-21,79,71,54,22,7,-3,28,9,5,29.74,29.63,12,7,23,0.00
2013-1-22,79,66,54,20,16,10,22,15,8,29.73,29.65,9,7,19,0.00
2013-1-23,74,63,52,52,38,25,90,44,21,29.76,29.63,19,2,19,0.13
2013-1-24,61,55,50,57,53,49,98,93,82,29.83,29.73,14,3,14,0.29
2013-1-25,61,57,55,56,53,49,96,86,67,29.78,29.61,17,3,17,0.18
2013-1-26,69,57,52,60,53,-100,99,89,69,29.63,29.51,8,-6,15,0.34
2013-1-27,63,52,36,53,45,34,96,81,43,29.68,29.55,9,1,12,0.06
2013-1-28,60,44,32,40,34,31,97,72,38,29.84,29.67,7,1,10,0.06
2013-1-29,59,42,33,41,35,31,96,81,42,29.86,29.77,5,1,8,0.00
2013-1-30,68,47,33,48,40,32,98,78,43,29.97,29.85,7,1,13,0.00
2013-1-31,78,53,37,47,41,36,98,71,24,29.90,29.73,7,2,15,0.00
2013-2-1,77,53,40,52,44,38,94,75,30,29.82,29.74,9,2,13,0.00
2013-2-2,73,50,46,56,24,-100,94,56,37,29.84,29.75,6,-162,13,0.01
2013-2-3,74,58,41,51,46,40,97,69,36,29.77,29.64,6,2,10,0.00
2013-2-4,69,50,37,53,43,36,97,81,48,29.73,29.61,8,2,11,0.00
2013-2-5,61,43,36,52,41,35,98,92,71,29.72,29.63,7,1,13,0.00
2013-2-6,65,53,38,50,45,37,95,76,53,29.76,29.64,7,2,12,0.00
2013-2-7,61,47,34,49,42,32,98,83,55,29.78,29.61,6,1,10,0.00
2013-2-8,54,42,33,43,38,32,98,87,57,29.61,29.50,8,2,20,0.09
2013-2-9,58,38,31,41,19,-100,98,69,41,29.74,29.58,5,-117,10,0.09
2013-2-10,56,42,32,42,36,31,97,82,50,29.74,29.64,4,1,8,0.00
2013-2-11,64,44,32,39,31,20,97,69,18,29.89,29.72,9,2,16,0.00
2013-2-12,64,45,31,36,30,15,93,62,17,29.99,29.86,6,2,12,0.00
2013-2-13,61,43,32,35,30,25,94,67,29,29.91,29.78,12,2,14,0.00
2013-2-14,65,59,54,31,25,21,34,27,21,29.83,29.68,21,10,30,0.00
2013-2-15,65,62,61,22,18,16,19,18,17,29.83,29.75,24,14,43,0.00
2013-2-16,72,55,39,33,23,15,75,35,14,29.80,29.62,28,10,43,0.00
2013-2-17,67,50,37,50,38,26,95,64,29,29.66,29.55,8,2,14,0.00
2013-2-18,63,52,42,48,45,40,97,80,56,29.70,29.57,6,2,11,0.00
2013-2-19,55,48,39,47,44,38,96,87,65,29.62,29.35,8,2,15,0.10
2013-2-20,63,44,31,41,34,29,96,72,35,29.64,29.36,5,1,8,0.01
2013-2-21,60,43,31,43,34,29,92,74,38,29.75,29.61,7,2,12,0.01
2013-2-22,65,47,32,41,34,29,94,66,26,29.84,29.75,7,2,12,0.00
2013-2-23,66,48,32,49,39,30,94,74,41,29.81,29.53,6,2,10,0.00
2013-2-24,67,45,34,35,9,-100,83,37,11,29.86,29.64,13,-108,22,0.00
2013-2-25,66,44,31,40,24,-100,91,55,17,29.87,29.70,8,-32,15,0.00
2013-2-26,75,49,31,40,31,18,92,61,12,29.77,29.61,8,2,17,0.00
2013-2-27,73,50,39,34,25,17,71,42,15,29.93,29.77,7,2,14,0.00
2013-2-28,80,46,34,39,8,-100,82,41,9,29.97,29.86,6,-153,9,0.00
2013-3-1,85,60,40,43,30,19,77,43,10,29.95,29.78,11,4,22,0.00
2013-3-2,83,62,43,47,34,24,92,42,13,29.85,29.70,8,3,13,0.00
2013-3-3,70,56,44,51,48,41,93,75,36,29.76,29.60,8,2,13,0.00
2013-3-4,66,48,38,52,38,-100,98,80,54,29.73,29.64,9,-43,14,0.00
2013-3-5,63,51,40,51,46,39,97,84,64,29.77,29.66,7,2,14,0.00
2013-3-6,57,50,39,48,45,37,97,83,62,29.79,29.64,6,1,10,0.00
2013-3-7,60,45,46,48,26,-100,95,68,47,29.65,29.47,7,-131,13,0.45
2013-3-8,58,48,42,47,44,40,97,87,67,29.66,29.42,6,2,12,0.94
2013-3-9,66,49,37,47,42,36,98,78,41,29.86,29.65,5,1,9,0.01
2013-3-10,76,49,36,45,20,-100,94,50,19,29.92,29.78,16,-117,17,0.01
2013-3-11,65,60,57,42,29,-100,52,31,21,29.82,29.68,16,5,18,0.00
2013-3-12,71,59,61,46,15,-100,43,23,16,29.73,29.64,16,-63,22,0.00
2013-3-13,71,37,44,40,-18,-100,85,28,17,29.73,29.70,3,-382,9,0.00
2013-3-14,78,56,50,50,12,-100,94,33,20,29.73,29.64,1,-198,2,0.00
2013-3-15,72,56,44,57,50,42,98,83,55,29.67,29.57,11,2,18,0.00
2013-3-16,65,54,44,55,50,42,98,87,66,29.62,29.51,7,2,13,0.01
2013-3-17,71,53,43,55,48,41,98,85,47,29.64,29.54,8,2,14,0.01
2013-3-18,63,51,41,53,47,39,98,86,67,29.72,29.62,7,2,14,0.01
2013-3-19,68,49,42,55,33,-100,98,73,59,29.75,29.66,9,-109,19,0.01
2013-3-20,69,57,47,56,50,46,98,81,54,29.73,29.59,7,2,13,0.00
2013-3-21,73,57,42,54,49,41,98,77,46,29.60,29.43,8,2,13,0.00
2013-3-22,73,55,37,50,40,30,95,65,21,29.54,29.43,7,2,14,0.00
2013-3-23,70,49,33,50,36,27,90,66,25,29.64,29.54,8,2,14,0.00
2013-3-24,75,55,36,51,36,-100,97,60,28,29.67,29.52,9,-57,14,0.00
2013-3-25,71,50,37,53,31,-100,97,64,42,29.61,29.52,7,-93,13,0.00
2013-3-26,68,50,38,54,39,-100,98,76,56,29.97,29.56,9,-44,16,0.00
2013-3-27,68,53,43,54,45,-100,97,80,56,30.05,29.93,8,-17,13,0.00
2013-3-28,71,55,46,56,50,44,97,84,59,30.08,30.01,10,2,15,0.00
2013-3-29,72,56,44,57,50,42,98,82,49,30.11,30.02,9,2,16,0.00
2013-3-30,72,58,52,56,51,40,95,80,35,30.13,30.03,11,2,17,0.00
2013-3-31,65,57,52,58,53,50,95,87,69,30.12,30.04,6,2,11,0.00
2013-4-1,65,57,48,55,50,46,96,81,64,30.17,30.07,10,2,17,0.00
2013-4-2,70,55,40,55,48,38,98,78,49,30.11,29.98,9,2,16,0.00
2013-4-3,74,57,43,56,51,41,97,81,52,30.08,29.98,8,2,14,0.00
2013-4-4,72,59,53,57,53,51,95,82,55,30.11,29.98,9,2,16,0.00
2013-4-5,71,60,55,58,54,52,91,82,60,30.10,29.97,8,2,13,0.00
2013-4-7,63,56,50,52,50,47,91,80,68,29.80,29.76,3,0,6,0.00
2013-4-8,71,55,45,49,34,-100,96,56,22,29.83,29.63,10,-31,20,0.00
2013-4-9,73,52,38,46,28,-100,92,54,20,30.01,29.83,7,-67,11,0.00
2013-4-10,80,53,38,48,39,28,90,66,15,30.12,29.96,5,1,11,0.00
2013-4-11,72,55,39,50,42,-100,92,68,33,29.98,29.76,11,-10,15,0.00
2013-4-12,70,55,44,55,49,42,95,81,57,29.88,29.78,9,2,16,0.00
2013-4-13,66,55,46,56,51,44,97,86,69,29.92,29.83,7,2,13,0.00
2013-4-14,60,56,53,54,52,50,96,86,72,29.88,29.81,5,1,11,0.01
2013-4-15,62,50,48,52,34,-100,90,71,68,29.89,29.82,7,-96,12,0.01
2013-4-16,68,54,40,46,41,32,96,65,35,30.01,29.86,9,2,13,0.00
2013-4-17,69,53,34,40,32,21,84,51,18,30.15,30.01,9,2,15,0.00
2013-4-18,78,60,38,36,24,12,77,32,9,30.22,30.11,12,4,24,0.00
2013-4-19,83,55,40,48,17,-100,83,39,8,30.17,29.96,7,-113,15,0.00
2013-4-20,88,61,40,53,45,32,90,61,14,29.99,29.87,10,2,16,0.00
2013-4-21,80,61,42,55,45,-100,95,65,29,30.00,29.91,9,-9,14,0.00
2013-4-22,71,54,52,55,36,-100,94,69,54,30.00,29.88,9,-100,14,0.00
2013-4-23,72,60,48,56,51,45,90,74,54,29.96,29.86,8,2,15,0.00
2013-4-24,61,55,48,54,52,45,95,90,77,29.94,29.90,3,0,11,0.00
2013-4-27,75,64,49,56,52,46,91,68,48,30.08,29.99,9,3,16,0.00
2013-4-28,73,58,46,59,52,44,97,83,58,30.01,29.85,8,2,16,0.00
2013-4-29,72,53,52,59,36,-100,96,73,62,29.91,29.78,9,-117,16,0.00
2013-4-30,68,59,51,57,54,48,94,83,62,29.89,29.81,6,2,16,0.00
2013-5-1,74,62,48,58,53,45,92,74,53,30.09,29.89,8,2,16,0.00
2013-5-2,92,69,46,50,23,-23,96,40,1,30.12,29.99,15,5,27,0.00
2013-5-3,93,68,44,50,29,-8,71,34,3,30.03,29.76,7,3,25,0.00
2013-5-4,75,60,44,57,49,36,88,69,35,29.83,29.72,8,3,25,0.00
2013-5-5,66,59,54,53,50,48,88,73,55,29.93,29.82,6,2,25,0.00
2013-5-6,64,58,54,56,53,50,97,85,65,30.01,29.88,5,1,25,0.16
2013-5-7,70,56,50,55,44,-100,96,73,46,30.06,29.97,10,-40,25,0.16
2013-5-8,70,57,47,54,47,-100,96,74,51,30.10,30.05,8,-10,25,0.00
2013-5-9,72,58,44,56,48,-100,98,75,54,30.10,30.00,11,-9,25,0.00
2013-5-10,78,62,48,59,53,46,97,76,46,30.10,29.99,11,3,25,0.00
2013-5-11,79,63,50,62,55,48,98,78,48,30.06,29.98,10,2,25,0.00
2013-5-12,88,66,49,63,55,48,98,73,34,30.04,29.96,9,2,25,0.00
2013-5-13,91,75,54,63,56,51,89,55,28,29.96,29.87,8,4,25,0.00
2013-5-14,77,59,47,59,49,-100,97,76,47,29.99,29.89,11,-20,25,0.00
2013-5-15,50,47,45,47,45,43,95,92,89,30.02,29.99,1,0,25,0.00
2013-5-16,60,56,53,52,51,50,90,84,74,29.93,29.90,1,0,25,0.00
2013-5-17,71,60,49,58,52,47,95,77,54,29.99,29.91,8,2,25,0.00
2013-5-18,73,60,45,57,50,43,97,73,45,30.04,29.95,10,2,25,0.00
2013-5-19,77,62,44,57,50,42,97,70,39,29.99,29.84,10,3,25,0.00
2013-5-20,78,63,46,59,53,44,98,73,49,29.95,29.86,10,2,25,0.00
2013-5-21,75,57,49,61,53,48,97,88,62,29.94,29.88,3,1,25,0.00
2013-5-22,72,64,49,58,53,46,90,68,51,29.84,29.76,8,3,25,0.00
2013-5-23,70,58,47,54,49,44,94,73,47,29.94,29.82,7,2,25,0.00
2013-5-24,71,57,42,56,48,40,96,73,51,29.98,29.91,7,2,25,0.00
2013-5-25,71,58,43,56,48,41,96,73,49,30.02,29.96,7,2,25,0.00
2013-5-26,71,58,43,56,49,40,96,73,53,30.04,29.98,8,2,25,0.00
2013-5-27,77,61,44,59,51,42,96,73,47,30.00,29.83,8,2,25,0.00
2013-5-28,80,65,49,59,54,47,96,71,44,29.88,29.72,8,2,25,0.00
2013-5-29,83,66,49,60,54,47,97,69,36,29.80,29.69,9,2,25,0.00
2013-5-30,77,64,47,59,53,45,97,72,48,29.86,29.76,9,3,25,0.00
2013-5-31,76,64,53,62,56,49,94,76,56,29.92,29.80,9,2,25,0.00
2013-6-1,55,53,51,52,50,49,92,90,89,29.85,29.83,0,0,25,0.00
2013-6-2,64,61,59,58,57,56,91,86,80,29.82,29.76,5,2,25,0.00
2013-6-3,74,64,55,61,57,52,93,78,58,29.89,29.78,8,2,25,0.00
2013-6-4,74,63,51,61,56,48,93,78,59,29.97,29.88,9,2,25,0.00
2013-6-5,72,59,46,59,52,44,97,81,61,30.01,29.91,10,2,25,0.00
2013-6-6,72,60,48,60,54,46,96,83,61,29.95,29.86,9,2,25,0.00
2013-6-7,74,62,52,61,56,50,95,81,60,29.91,29.77,9,3,25,0.00
2013-6-8,73,63,58,61,57,55,91,81,64,29.90,29.78,9,2,25,0.00
2013-6-9,73,64,58,62,57,54,92,80,65,29.91,29.86,9,2,25,0.00
2013-6-10,76,65,54,58,55,51,93,72,50,29.95,29.88,8,2,25,0.00
2013-6-11,73,56,50,59,52,48,96,88,60,29.94,29.90,2,0,25,0.00
2013-6-17,78,66,46,62,57,45,97,74,54,29.98,29.86,8,3,25,0.00
2013-6-18,76,63,48,59,54,46,97,74,51,29.92,29.81,9,3,25,0.00
2013-6-19,84,66,48,58,52,46,97,65,30,29.87,29.75,9,2,25,0.00
2013-6-20,79,64,44,59,51,42,96,67,38,29.85,29.78,10,2,25,0.00
2013-6-21,80,65,48,58,52,46,96,67,42,29.89,29.82,9,2,25,0.00
2013-6-22,76,63,48,61,54,46,95,75,53,29.90,29.80,9,3,25,0.00
2013-6-23,72,61,49,61,54,47,95,81,64,29.88,29.79,6,2,25,0.00
2013-6-24,71,61,50,60,55,48,95,81,66,29.94,29.81,6,2,25,0.00
2013-6-25,75,65,53,62,58,51,95,79,61,29.98,29.89,9,2,25,0.00
2013-6-26,82,69,54,65,59,53,96,73,47,29.97,29.89,9,3,25,0.00
2013-6-27,86,72,58,67,61,56,96,71,46,30.00,29.94,10,3,25,0.00
2013-6-28,87,72,58,66,61,56,95,71,43,29.97,29.85,8,2,25,0.00
2013-6-29,90,74,57,67,61,55,96,68,39,29.87,29.72,9,2,25,0.00
2013-6-30,92,74,58,66,62,56,95,69,38,29.80,29.68,10,3,25,0.00
2013-7-1,88,71,60,67,63,58,97,77,47,29.86,29.78,8,2,25,0.00
2013-7-2,81,69,59,67,62,57,96,78,55,29.98,29.85,10,3,25,0.00
2013-7-3,83,68,60,66,61,57,95,81,51,29.91,29.78,10,2,25,0.00
2013-7-4,78,68,61,65,61,59,94,79,55,29.83,29.72,9,3,25,0.00
2013-7-5,80,67,59,65,61,56,94,81,58,29.84,29.74,9,2,25,0.00
2013-7-6,78,67,59,65,61,57,92,82,61,29.82,29.73,10,2,25,0.00
2013-7-7,79,66,57,65,60,53,95,80,56,29.85,29.75,9,3,25,0.00
2013-7-8,84,66,51,64,57,49,96,76,47,29.92,29.85,8,2,25,0.00
2013-7-9,86,68,52,65,57,50,97,71,39,29.96,29.90,10,3,25,0.01
2013-7-10,84,67,56,64,59,53,95,77,48,29.97,29.87,7,2,25,0.01
2013-7-11,66,64,64,60,60,59,88,86,81,29.92,29.88,3,1,25,0.00
2013-7-15,80,69,53,61,56,51,97,66,41,29.87,29.79,11,4,18,0.00
2013-7-16,55,49,46,54,48,44,97,93,90,29.92,29.86,1,0,1,0.00
2013-7-21,74,67,63,65,62,60,91,83,72,29.92,29.85,6,3,11,0.00
2013-7-22,78,65,61,66,61,58,96,87,64,29.97,29.89,6,1,9,0.00
2013-7-23,77,65,59,61,58,56,94,81,52,29.98,29.92,10,2,16,0.00
2013-7-24,76,64,55,63,58,53,95,81,59,29.97,29.88,9,2,16,0.00
2013-7-25,77,64,54,63,58,52,95,81,60,30.01,29.92,9,2,15,0.00
2013-7-26,77,65,57,64,58,54,94,80,59,30.09,29.97,7,2,11,0.00
2013-7-27,78,65,55,63,58,53,95,79,56,30.01,29.86,9,3,14,0.00
2013-7-28,74,62,57,63,58,55,94,85,66,29.93,29.86,9,2,15,0.00
2013-7-29,75,65,54,62,57,51,91,78,58,30.03,29.91,9,2,14,0.00
2013-7-30,74,61,50,61,55,48,95,81,59,30.12,30.03,8,2,15,0.00
2013-7-31,73,60,49,61,54,46,96,83,61,30.12,29.99,8,2,15,0.00
2013-8-1,58,57,56,55,54,54,94,92,89,30.03,29.98,1,0,8,0.00
2013-8-29,93,78,64,60,58,56,85,56,30,29.92,29.83,8,2,13,0.00
2013-8-30,95,77,60,67,61,57,89,61,33,29.94,29.89,8,2,15,0.00
2013-8-31,89,77,65,70,65,58,88,68,48,29.95,29.85,8,2,13,0.00
2013-9-1,87,74,65,72,65,62,90,76,57,29.92,29.83,8,2,19,0.00
2013-9-2,86,72,61,69,64,59,96,78,54,29.91,29.78,8,2,14,0.00
2013-9-3,89,74,60,69,63,58,96,72,42,29.88,29.80,8,2,14,0.00
2013-9-4,90,72,58,67,61,56,97,70,40,29.90,29.81,8,2,16,0.00
2013-9-5,93,72,56,66,59,54,97,69,31,29.88,29.80,8,2,13,0.00
2013-9-6,94,72,56,64,58,53,93,67,28,29.86,29.76,8,2,14,0.00
2013-9-7,92,69,54,62,56,49,96,69,25,29.86,29.77,9,2,14,0.00
2013-9-8,82,66,57,64,57,53,95,75,41,29.84,29.73,9,2,15,0.00
2013-9-9,76,63,54,63,57,52,97,83,60,29.81,29.73,9,2,15,0.00
2013-9-10,76,64,55,62,58,52,94,81,59,29.93,29.80,8,2,12,0.00
2013-9-11,77,62,52,62,56,50,95,82,58,30.00,29.92,8,2,14,0.00
2013-9-13,83,73,57,62,57,54,90,61,41,29.79,29.66,9,3,15,0.00
2013-9-14,63,54,52,59,52,50,97,92,84,29.71,29.67,1,0,2,0.00
2013-9-16,84,66,53,60,57,50,92,74,41,29.78,29.72,7,2,12,0.00
2013-9-17,76,61,45,61,53,44,98,78,51,29.82,29.71,8,2,14,0.00
2013-9-18,69,54,49,60,52,47,98,93,73,29.81,29.75,4,0,12,0.00
2013-10-4,84,77,47,44,17,10,90,12,7,30.03,29.90,15,11,24,0.00
2013-10-5,88,77,68,26,19,12,19,12,6,30.13,30.02,15,9,22,0.00
2013-10-6,92,73,52,40,25,11,64,21,5,30.08,29.96,9,4,14,0.00
2013-10-7,82,60,45,56,42,28,92,56,16,29.98,29.89,7,2,14,0.00
2013-10-8,72,56,38,57,48,37,96,77,44,29.93,29.81,8,2,12,0.00
2013-10-9,58,55,52,53,51,49,92,88,83,29.82,29.74,2,0,11,0.00
2013-10-10,68,56,40,52,47,38,96,73,48,30.03,29.92,6,2,9,0.00
2013-10-11,73,55,42,55,48,40,96,79,49,30.06,29.95,8,2,12,0.00
2013-10-12,75,56,42,56,47,40,96,77,42,29.98,29.88,9,2,13,0.01
2013-10-13,66,50,40,54,46,39,94,88,66,30.03,29.94,4,1,9,0.01
2013-10-14,84,60,42,53,42,31,98,64,15,30.04,29.90,10,3,17,0.00
2013-10-15,86,64,46,44,35,28,87,40,13,29.98,29.86,10,3,18,0.00
2013-10-16,87,66,44,40,32,18,74,35,9,30.07,29.97,9,3,16,0.00
2013-10-17,80,60,43,52,39,30,91,52,18,30.05,29.91,7,2,12,0.00
2013-10-18,79,58,41,55,45,37,91,66,27,30.01,29.93,7,2,13,0.00
2013-10-19,84,60,43,57,44,32,92,62,20,30.03,29.94,7,2,14,0.00
2013-10-20,70,51,42,56,46,35,95,84,57,29.98,29.89,6,1,9,0.00
2013-10-21,73,56,44,58,50,42,97,82,53,29.99,29.90,6,1,11,0.01
2013-10-22,74,53,39,57,48,37,98,84,54,30.01,29.90,5,1,9,0.01
2013-10-23,70,56,48,57,52,46,97,88,62,29.99,29.89,7,1,9,0.01
2013-10-24,71,59,49,56,53,47,95,82,59,30.06,29.95,7,1,11,0.01
2013-10-25,74,58,48,58,53,46,95,85,58,30.14,30.01,4,1,9,0.00
2013-10-26,78,56,40,59,48,37,98,78,25,30.10,29.97,6,1,9,0.00
2013-10-27,72,54,39,58,48,37,95,82,46,29.99,29.81,10,2,12,0.00
2013-10-28,64,56,45,54,49,42,95,78,57,29.86,29.78,9,3,16,0.04
2013-10-29,64,54,42,52,47,40,98,79,56,30.01,29.93,6,2,11,0.00
2013-10-30,74,53,39,50,43,38,96,75,30,30.07,29.97,6,1,10,0.00
2013-10-31,78,54,37,47,41,35,96,68,22,30.09,29.99,7,2,13,0.00
2013-11-1,86,58,39,44,38,29,92,57,13,30.09,29.94,7,2,13,0.00
2013-11-2,82,58,42,54,40,34,90,59,18,29.99,29.86,8,2,13,0.00
2013-11-3,69,51,36,55,45,34,96,81,56,29.92,29.81,6,1,9,0.00
2013-11-4,69,56,42,54,49,40,96,81,54,29.97,29.80,6,1,9,0.00
2013-11-5,74,52,37,39,30,20,94,52,13,30.17,29.97,11,3,20,0.00
2013-11-6,82,64,39,38,22,14,69,24,8,30.18,30.10,11,5,22,0.00
2013-11-7,87,66,45,38,28,18,67,28,11,30.12,29.99,8,3,14,0.00
2013-11-8,77,56,41,53,38,26,91,55,19,30.03,29.92,6,2,11,0.00
2013-11-9,75,54,39,55,44,35,94,73,31,30.08,29.98,6,2,8,0.00
2013-11-10,63,46,40,50,39,34,92,78,36,30.13,30.04,3,1,4,0.00
2013-11-11,76,53,37,52,42,34,93,71,31,30.14,30.02,7,1,13,0.00
2013-11-12,77,56,44,60,46,39,93,72,38,30.17,30.07,4,1,6,0.00
2013-11-13,92,60,45,49,37,24,85,54,9,30.09,29.91,6,2,12,0.00
2013-11-16,67,63,57,55,54,52,84,73,65,29.86,29.82,6,3,9,0.00
2013-11-18,67,55,40,53,48,38,97,80,58,30.17,30.05,6,2,9,0.00
2013-11-19,66,53,42,54,48,41,97,85,64,30.10,29.94,5,1,8,0.00
2013-11-20,67,56,46,56,52,44,97,86,61,29.98,29.86,4,1,6,0.15
2013-11-21,64,57,53,58,54,43,98,90,69,29.88,29.81,7,2,16,0.42
2013-11-22,62,54,51,44,41,39,69,61,49,29.98,29.85,13,8,24,0.00
2013-11-23,64,54,45,43,41,39,82,63,42,30.11,29.96,10,6,19,0.00
2013-11-24,70,54,40,47,42,38,93,67,33,30.22,30.08,7,2,14,0.00
2013-11-25,74,51,37,61,41,35,96,74,28,30.25,30.14,6,1,8,0.01
2013-11-26,76,59,40,49,40,33,92,54,21,30.19,30.03,8,3,14,0.01
2013-11-27,75,60,43,45,40,38,91,53,27,30.03,29.85,8,3,14,0.00
2013-11-28,68,58,51,47,42,38,83,58,35,30.04,29.88,5,2,11,0.00
2013-11-29,69,58,46,50,45,41,95,66,38,30.18,30.04,11,3,13,0.05
2013-11-30,77,54,40,46,41,35,96,68,23,30.20,30.06,7,1,14,0.00
2013-12-1,80,59,42,44,36,27,84,48,16,30.24,30.10,7,2,10,0.00
2013-12-2,74,52,40,43,36,33,78,57,27,30.14,29.98,6,2,10,0.00
2013-12-3,66,54,34,52,46,33,96,76,52,29.87,29.72,8,2,11,0.00
2013-12-4,62,44,31,44,30,17,93,66,17,29.97,29.77,5,1,7,0.00
2013-12-5,59,41,31,35,28,-100,91,65,31,30.12,29.96,5,-10,8,0.00
2013-12-6,68,39,30,45,7,-100,77,46,40,30.19,30.10,11,-156,13,0.00
2013-12-7,61,48,33,52,38,-100,97,72,45,30.15,29.96,7,-10,13,0.00
2013-12-8,57,42,32,38,31,24,92,67,30,30.25,30.11,4,1,13,0.00
2013-12-9,59,49,38,24,12,0,57,25,12,30.32,30.22,14,8,33,0.00
2013-12-10,66,54,47,14,9,4,21,16,10,30.30,30.11,12,6,22,0.00
2013-12-11,70,56,50,17,14,11,24,19,12,30.18,30.12,11,6,22,0.00
2013-12-13,66,45,32,46,35,28,93,72,34,30.25,30.14,6,1,10,0.00
2013-12-14,74,39,32,34,-7,-100,93,34,14,30.31,30.21,12,-274,20,0.00
2013-12-15,79,60,42,30,26,22,57,31,15,30.29,30.09,16,6,23,0.00
2013-12-16,84,66,62,33,19,-100,26,19,13,30.14,30.04,14,-58,24,0.00
2013-12-17,84,60,57,42,12,-100,54,20,14,30.11,30.00,11,-136,19,0.00
2013-12-19,42,38,38,40,30,-100,96,89,93,29.84,29.78,1,-38,16,0.01
2013-12-20,68,46,34,49,37,32,99,76,29,29.97,29.83,5,1,10,0.01
2013-12-21,64,46,33,49,38,30,94,77,48,30.12,29.94,5,1,10,0.00
2013-12-22,67,46,36,51,41,34,97,84,52,30.29,30.11,7,1,13,0.00
2013-12-23,78,52,37,50,38,35,98,67,22,30.32,30.23,9,2,15,0.01
2013-12-24,81,59,40,49,38,31,89,52,18,30.23,30.08,10,3,17,0.00
2013-12-25,77,68,55,33,27,16,35,22,13,30.20,30.13,13,7,25,0.00
2013-12-26,77,64,61,21,15,11,19,15,9,30.18,30.13,11,6,18,0.00
2013-12-27,85,64,48,38,24,8,59,28,6,30.17,30.03,9,3,15,0.00
2013-12-28,74,54,36,46,32,20,91,48,15,30.06,29.92,7,2,11,0.00
2013-12-29,75,54,32,34,23,13,92,40,10,30.18,30.02,10,4,22,0.00
2013-12-30,74,49,34,32,26,14,80,47,11,30.28,30.17,7,2,10,0.00
2013-12-31,70,49,34,49,33,-100,93,58,22,30.23,30.09,6,-2,10,0.00
2014-1-1,72,50,34,52,39,29,92,71,35,30.16,30.04,6,2,11,0.00
2014-1-2,83,61,43,44,34,27,73,40,15,30.12,29.99,7,3,13,0.00